createdAt,value
2023-01-21T00:00:33.485Z,102257.31
2023-01-21T00:03:18.902Z,102247.19
2023-01-21T00:06:04.761Z,102263.69
2023-01-21T00:08:50.180Z,102255.03
2023-01-21T00:11:35.848Z,102260.28
2023-01-21T00:14:21.296Z,102272.31
2023-01-21T00:17:06.981Z,102275.34
2023-01-21T00:19:52.391Z,102280.72
2023-01-21T00:22:37.723Z,102276.69
2023-01-21T00:25:23.435Z,102285.44
2023-01-21T00:28:09.102Z,102284.56
2023-01-21T00:31:00.601Z,102283.78
2023-01-21T00:33:48.119Z,102285.56
2023-01-21T00:36:33.605Z,102290.66
2023-01-21T00:39:18.909Z,102288.91
2023-01-21T00:42:04.973Z,102286.38
2023-01-21T00:44:50.278Z,102293.06
2023-01-21T00:47:37.464Z,102295.63
2023-01-21T00:50:22.946Z,102299.00
2023-01-21T00:53:08.586Z,102302.50
2023-01-21T00:55:54.042Z,102297.66
2023-01-21T00:58:40.050Z,102302.94
2023-01-21T01:01:27.882Z,102313.69
2023-01-21T01:04:13.709Z,102315.63
2023-01-21T01:06:59.424Z,102326.56
2023-01-21T01:09:44.795Z,102333.72
2023-01-21T01:12:30.223Z,102327.94
2023-01-21T01:15:15.656Z,102333.03
2023-01-21T01:18:01.257Z,102338.09
2023-01-21T01:20:47.317Z,102339.91
2023-01-21T01:23:32.994Z,102348.50
2023-01-21T01:26:20.154Z,102346.78
2023-01-21T01:29:05.751Z,102355.50
2023-01-21T01:31:51.210Z,102356.44
2023-01-21T01:34:37.093Z,102358.91
2023-01-21T01:37:22.501Z,102364.06
2023-01-21T01:40:10.222Z,102368.47
2023-01-21T01:42:55.890Z,102375.00
2023-01-21T01:45:41.206Z,102365.88
2023-01-21T01:48:30.147Z,102380.34
2023-01-21T01:51:21.332Z,102372.50
2023-01-21T01:54:09.438Z,102374.84
2023-01-21T01:57:00.031Z,102375.75
2023-01-21T01:59:46.847Z,102386.56
2023-01-21T02:02:34.145Z,102383.53
2023-01-21T02:05:19.463Z,102390.06
2023-01-21T02:08:06.246Z,102393.66
2023-01-21T02:10:53.864Z,102395.69
2023-01-21T02:13:42.158Z,102400.91
2023-01-21T02:16:44.989Z,102392.16
2023-01-21T02:19:42.638Z,102398.09
2023-01-21T02:22:52.456Z,102399.22
2023-01-21T02:26:10.871Z,102395.84
2023-01-21T02:29:18.203Z,102390.56
2023-01-21T02:32:51.541Z,102392.81
2023-01-21T02:35:55.120Z,102402.19
2023-01-21T02:38:46.201Z,102410.84
2023-01-21T02:41:55.018Z,102428.88
2023-01-21T02:44:42.885Z,102420.41
2023-01-21T02:48:05.853Z,102424.03
2023-01-21T02:50:53.747Z,102415.59
2023-01-21T02:53:39.272Z,102428.63
2023-01-21T02:56:26.441Z,102429.66
2023-01-21T02:59:12.618Z,102432.00
2023-01-21T03:02:18.110Z,102420.88
2023-01-21T03:05:12.839Z,102435.06
2023-01-21T03:08:11.676Z,102435.50
2023-01-21T03:11:16.160Z,102446.56
2023-01-21T03:14:34.604Z,102451.16
2023-01-21T03:17:34.288Z,102466.69
2023-01-21T03:20:34.185Z,102458.00
2023-01-21T03:23:24.062Z,102465.81
2023-01-21T03:26:13.443Z,102467.63
2023-01-21T03:29:06.048Z,102466.53
2023-01-21T03:31:56.617Z,102465.91
2023-01-21T03:34:47.141Z,102477.31
2023-01-21T03:37:40.798Z,102481.00
2023-01-21T03:40:33.442Z,102469.63
2023-01-21T03:43:19.287Z,102474.69
2023-01-21T03:46:11.629Z,102477.38
2023-01-21T03:49:11.013Z,102469.28
2023-01-21T03:52:00.594Z,102471.06
2023-01-21T03:54:47.975Z,102484.34
2023-01-21T03:57:33.313Z,102479.28
2023-01-21T04:00:18.959Z,102484.56
2023-01-21T04:03:04.772Z,102482.88
2023-01-21T04:05:50.573Z,102481.22
2023-01-21T04:08:35.926Z,102494.94
2023-01-21T04:11:21.489Z,102489.72
2023-01-21T04:14:06.996Z,102489.88
2023-01-21T04:16:52.692Z,102485.25
2023-01-21T04:19:38.467Z,102486.91
2023-01-21T04:22:23.770Z,102498.16
2023-01-21T04:25:09.428Z,102490.44
2023-01-21T04:27:54.740Z,102489.28
2023-01-21T04:30:40.500Z,102499.69
2023-01-21T04:33:26.001Z,102497.13
2023-01-21T04:36:11.481Z,102500.47
2023-01-21T04:38:56.953Z,102490.03
2023-01-21T04:41:42.274Z,102502.19
2023-01-21T04:44:27.779Z,102499.44
2023-01-21T04:47:13.435Z,102502.78
2023-01-21T04:49:59.263Z,102517.28
2023-01-21T04:52:44.996Z,102513.69
2023-01-21T04:55:30.333Z,102527.72
2023-01-21T04:58:15.646Z,102522.44
2023-01-21T05:01:01.330Z,102527.59
2023-01-21T05:03:47.020Z,102526.34
2023-01-21T05:06:32.633Z,102530.72
2023-01-21T05:09:18.124Z,102519.63
2023-01-21T05:12:04.397Z,102530.06
2023-01-21T05:14:53.984Z,102526.47
2023-01-21T05:17:39.458Z,102534.94
2023-01-21T05:20:25.086Z,102530.03
2023-01-21T05:23:10.842Z,102532.09
2023-01-21T05:25:56.190Z,102547.63
2023-01-21T05:28:41.560Z,102534.69
2023-01-21T05:31:26.870Z,102551.84
2023-01-21T05:34:12.565Z,102568.88
2023-01-21T05:36:58.350Z,102568.03
2023-01-21T05:39:44.504Z,102574.09
2023-01-21T05:42:30.175Z,102570.69
2023-01-21T05:45:15.559Z,102587.13
2023-01-21T05:48:00.941Z,102584.84
2023-01-21T05:50:47.180Z,102585.81
2023-01-21T05:53:32.764Z,102595.25
2023-01-21T05:56:18.069Z,102602.09
2023-01-21T05:59:03.503Z,102600.97
2023-01-21T06:01:48.932Z,102601.97
2023-01-21T06:04:34.411Z,102604.59
2023-01-21T06:07:19.722Z,102614.13
2023-01-21T06:10:05.491Z,102607.38
2023-01-21T06:12:54.231Z,102611.81
2023-01-21T06:15:40.059Z,102611.78
2023-01-21T06:18:25.593Z,102624.31
2023-01-21T06:21:10.855Z,102620.72
2023-01-21T06:23:57.303Z,102623.31
2023-01-21T06:26:42.776Z,102632.97
2023-01-21T06:29:28.452Z,102638.09
2023-01-21T06:32:13.901Z,102644.13
2023-01-21T06:34:59.463Z,102645.16
2023-01-21T06:37:45.929Z,102652.88
2023-01-21T06:40:31.552Z,102638.19
2023-01-21T06:43:16.805Z,102644.19
2023-01-21T06:46:02.224Z,102641.66
2023-01-21T06:48:47.612Z,102643.44
2023-01-21T06:51:33.020Z,102650.25
2023-01-21T06:54:18.704Z,102656.38
2023-01-21T06:57:03.959Z,102656.22
2023-01-21T06:59:49.464Z,102654.44
2023-01-21T07:02:35.000Z,102652.56
2023-01-21T07:05:20.815Z,102656.06
2023-01-21T07:08:06.121Z,102658.72
2023-01-21T07:10:51.565Z,102656.97
2023-01-21T07:13:37.342Z,102667.38
2023-01-21T07:16:22.671Z,102659.31
2023-01-21T07:19:08.462Z,102673.41
2023-01-21T07:21:54.699Z,102678.56
2023-01-21T07:24:40.085Z,102678.56
2023-01-21T07:27:25.815Z,102680.38
2023-01-21T07:30:17.790Z,102670.72
2023-01-21T07:33:07.539Z,102684.03
2023-01-21T07:35:53.143Z,102676.31
2023-01-21T07:38:38.922Z,102691.88
2023-01-21T07:41:24.367Z,102685.66
2023-01-21T07:44:09.863Z,102699.25
2023-01-21T07:46:55.313Z,102702.69
2023-01-21T07:49:41.405Z,102697.44
2023-01-21T07:52:26.864Z,102711.22
2023-01-21T07:55:12.771Z,102709.13
2023-01-21T07:57:59.481Z,102703.81
2023-01-21T08:00:44.863Z,102718.41
2023-01-21T08:03:30.236Z,102722.69
2023-01-21T08:06:16.444Z,102727.97
2023-01-21T08:09:01.917Z,102726.66
2023-01-21T08:11:47.444Z,102726.81
2023-01-21T08:14:33.677Z,102738.84
2023-01-21T08:17:18.941Z,102724.84
2023-01-21T08:20:05.370Z,102724.19
2023-01-21T08:22:51.150Z,102720.56
2023-01-21T08:25:37.741Z,102727.47
2023-01-21T08:28:23.486Z,102718.78
2023-01-21T08:31:12.057Z,102738.94
2023-01-21T08:33:58.875Z,102734.41
2023-01-21T08:36:44.361Z,102745.97
2023-01-21T08:39:29.776Z,102740.75
2023-01-21T08:42:15.384Z,102751.72
2023-01-21T08:45:01.047Z,102751.00
2023-01-21T08:47:46.731Z,102752.81
2023-01-21T08:50:32.412Z,102757.97
2023-01-21T08:53:17.784Z,102759.88
2023-01-21T08:56:04.752Z,102767.66
2023-01-21T08:58:55.020Z,102771.69
2023-01-21T09:01:41.132Z,102766.34
2023-01-21T09:04:26.815Z,102764.66
2023-01-21T09:07:12.152Z,102772.56
2023-01-21T09:09:57.708Z,102776.34
2023-01-21T09:12:43.361Z,102781.75
2023-01-21T09:15:29.035Z,102780.16
2023-01-21T09:18:14.566Z,102787.72
2023-01-21T09:21:05.219Z,102788.19
2023-01-21T09:23:50.623Z,102785.44
2023-01-21T09:26:35.928Z,102777.47
2023-01-21T09:29:21.353Z,102792.34
2023-01-21T09:32:06.722Z,102785.38
2023-01-21T09:34:52.007Z,102787.97
2023-01-21T09:37:38.397Z,102795.28
2023-01-21T09:40:23.854Z,102793.75
2023-01-21T09:43:14.624Z,102795.66
2023-01-21T09:46:04.397Z,102799.28
2023-01-21T09:48:50.611Z,102799.31
2023-01-21T09:51:52.768Z,102808.19
2023-01-21T09:54:39.549Z,102795.13
2023-01-21T09:57:25.236Z,102802.53
2023-01-21T10:00:46.010Z,102802.00
2023-01-21T10:03:44.364Z,102787.91
2023-01-21T10:06:58.859Z,102784.06
2023-01-21T10:09:58.639Z,102784.91
2023-01-21T10:13:24.895Z,102779.44
2023-01-21T10:16:20.940Z,102788.94
2023-01-21T10:19:14.298Z,102770.25
2023-01-21T10:22:10.608Z,102773.81
2023-01-21T10:25:00.917Z,102770.03
2023-01-21T10:27:46.333Z,102775.22
2023-01-21T10:30:38.172Z,102757.28
2023-01-21T10:33:25.847Z,102759.06
2023-01-21T10:36:40.156Z,102755.53
2023-01-21T10:39:44.149Z,102768.47
2023-01-21T10:43:12.611Z,102768.97
2023-01-21T10:46:14.496Z,102768.44
2023-01-21T10:49:20.652Z,102773.06
2023-01-21T10:52:30.749Z,102777.19
2023-01-21T10:55:26.264Z,102785.94
2023-01-21T10:58:37.296Z,102794.50
2023-01-21T11:01:35.913Z,102780.63
2023-01-21T11:04:24.226Z,102783.88
2023-01-21T11:07:14.275Z,102784.53
2023-01-21T11:10:02.240Z,102792.06
2023-01-21T11:12:48.418Z,102783.41
2023-01-21T11:15:34.357Z,102780.03
2023-01-21T11:18:36.174Z,102782.66
2023-01-21T11:21:24.824Z,102774.72
2023-01-21T11:24:24.628Z,102786.22
2023-01-21T11:27:22.340Z,102770.69
2023-01-21T11:30:44.512Z,102776.25
2023-01-21T11:33:36.004Z,102775.25
2023-01-21T11:36:21.664Z,102777.53
2023-01-21T11:39:09.923Z,102779.31
2023-01-21T11:42:17.095Z,102770.91
2023-01-21T11:45:29.940Z,102768.38
2023-01-21T11:48:20.712Z,102770.91
2023-01-21T11:51:07.177Z,102770.22
2023-01-21T11:54:28.124Z,102770.28
2023-01-21T11:57:30.068Z,102762.41
2023-01-21T12:00:23.669Z,102762.38
2023-01-21T12:03:16.526Z,102755.31
2023-01-21T12:06:02.799Z,102754.25
2023-01-21T12:08:51.135Z,102754.22
2023-01-21T12:11:36.710Z,102755.94
2023-01-21T12:14:34.414Z,102760.25
2023-01-21T12:18:01.309Z,102754.28
2023-01-21T12:20:59.061Z,102742.50
2023-01-21T12:24:06.610Z,102746.50
2023-01-21T12:27:12.911Z,102744.56
2023-01-21T12:30:27.197Z,102728.66
2023-01-21T12:33:12.471Z,102736.47
2023-01-21T12:36:24.921Z,102730.34
2023-01-21T12:39:19.671Z,102738.84
2023-01-21T12:42:17.829Z,102725.06
2023-01-21T12:45:09.797Z,102729.41
2023-01-21T12:48:03.226Z,102732.59
2023-01-21T12:50:55.443Z,102733.59
2023-01-21T12:53:49.328Z,102722.56
2023-01-21T12:56:49.695Z,102718.88
2023-01-21T12:59:43.644Z,102712.72
2023-01-21T13:02:45.923Z,102709.19
2023-01-21T13:05:39.587Z,102711.44
2023-01-21T13:09:02.258Z,102710.94
2023-01-21T13:11:53.348Z,102706.94
2023-01-21T13:14:48.494Z,102707.84
2023-01-21T13:17:37.917Z,102715.63
2023-01-21T13:20:24.401Z,102720.66
2023-01-21T13:23:15.668Z,102725.84
2023-01-21T13:26:00.974Z,102731.84
2023-01-21T13:28:57.267Z,102733.47
2023-01-21T13:32:10.135Z,102739.41
2023-01-21T13:35:19.661Z,102736.84
2023-01-21T13:38:16.929Z,102737.59
2023-01-21T13:41:14.455Z,102740.94
2023-01-21T13:44:27.386Z,102736.66
2023-01-21T13:47:29.785Z,102735.91
2023-01-21T13:50:22.337Z,102746.31
2023-01-21T13:53:21.371Z,102742.88
2023-01-21T13:56:39.953Z,102733.31
2023-01-21T13:59:34.929Z,102736.75
2023-01-21T14:02:47.833Z,102740.16
2023-01-21T14:05:42.147Z,102735.75
2023-01-21T14:08:41.318Z,102725.13
2023-01-21T14:11:44.564Z,102736.31
2023-01-21T14:14:41.769Z,102738.13
2023-01-21T14:17:45.741Z,102746.75
2023-01-21T14:20:53.129Z,102737.06
2023-01-21T14:24:11.393Z,102736.31
2023-01-21T14:27:15.420Z,102742.44
2023-01-21T14:30:25.772Z,102750.84
2023-01-21T14:33:18.141Z,102749.13
2023-01-21T14:36:29.179Z,102750.00
2023-01-21T14:39:46.623Z,102768.22
2023-01-21T14:42:40.337Z,102763.88
2023-01-21T14:45:55.402Z,102769.94
2023-01-21T14:48:42.335Z,102772.47
2023-01-21T14:51:30.894Z,102753.22
2023-01-21T14:54:20.452Z,102767.09
2023-01-21T14:57:18.292Z,102767.91
2023-01-21T15:00:10.257Z,102764.47
2023-01-21T15:03:15.251Z,102751.44
2023-01-21T15:06:07.932Z,102752.13
2023-01-21T15:08:57.707Z,102755.59
2023-01-21T15:11:44.088Z,102759.06
2023-01-21T15:14:34.072Z,102767.56
2023-01-21T15:17:44.116Z,102762.34
2023-01-21T15:20:50.083Z,102772.81
2023-01-21T15:23:38.525Z,102775.38
2023-01-21T15:26:31.344Z,102777.88
2023-01-21T15:29:34.849Z,102777.78
2023-01-21T15:32:39.894Z,102781.97
2023-01-21T15:35:32.847Z,102772.44
2023-01-21T15:38:19.604Z,102765.31
2023-01-21T15:41:22.092Z,102768.81
2023-01-21T15:44:32.839Z,102767.00
2023-01-21T15:47:40.507Z,102761.84
2023-01-21T15:51:03.348Z,102764.25
2023-01-21T15:54:30.328Z,102766.84
2023-01-21T15:57:39.639Z,102764.34
2023-01-21T16:00:32.749Z,102760.78
2023-01-21T16:03:30.130Z,102757.38
2023-01-21T16:06:40.407Z,102757.41
2023-01-21T16:09:37.395Z,102765.09
2023-01-21T16:12:47.683Z,102764.31
2023-01-21T16:15:43.831Z,102761.63
2023-01-21T16:18:50.073Z,102769.50
2023-01-21T16:21:43.385Z,102761.75
2023-01-21T16:24:29.945Z,102760.91
2023-01-21T16:27:20.562Z,102757.28
2023-01-21T16:30:11.680Z,102764.16
2023-01-21T16:33:14.586Z,102758.06
2023-01-21T16:36:05.533Z,102752.88
2023-01-21T16:38:50.973Z,102760.84
2023-01-21T16:41:36.654Z,102757.19
2023-01-21T16:44:22.140Z,102762.56
2023-01-21T16:47:26.449Z,102753.66
2023-01-21T16:50:20.841Z,102740.75
2023-01-21T16:53:08.182Z,102763.22
2023-01-21T16:55:56.398Z,102762.47
2023-01-21T16:58:46.868Z,102759.78
2023-01-21T17:01:32.273Z,102760.66
2023-01-21T17:04:17.688Z,102754.41
2023-01-21T17:07:05.708Z,102757.06
2023-01-21T17:10:05.622Z,102764.22
2023-01-21T17:13:00.508Z,102764.13
2023-01-21T17:15:59.891Z,102753.59
2023-01-21T17:18:58.304Z,102748.47
2023-01-21T17:21:46.502Z,102752.78
2023-01-21T17:24:37.803Z,102753.69
2023-01-21T17:27:26.183Z,102747.63
2023-01-21T17:30:30.459Z,102755.38
2023-01-21T17:33:33.684Z,102764.78
2023-01-21T17:36:40.060Z,102768.44
2023-01-21T17:39:48.114Z,102765.75
2023-01-21T17:42:40.288Z,102764.78
2023-01-21T17:45:31.683Z,102773.41
2023-01-21T17:48:25.425Z,102775.94
2023-01-21T17:51:17.207Z,102775.00
2023-01-21T17:54:07.018Z,102772.53
2023-01-21T17:57:00.143Z,102779.31
2023-01-21T17:59:46.058Z,102775.91
2023-01-21T18:02:31.540Z,102770.84
2023-01-21T18:05:17.252Z,102768.03
2023-01-21T18:08:03.379Z,102756.75
2023-01-21T18:10:48.783Z,102768.94
2023-01-21T18:13:34.586Z,102761.97
2023-01-21T18:16:19.913Z,102765.34
2023-01-21T18:19:05.436Z,102751.53
2023-01-21T18:21:50.678Z,102752.50
2023-01-21T18:24:37.164Z,102764.53
2023-01-21T18:27:26.017Z,102761.94
2023-01-21T18:30:17.076Z,102766.44
2023-01-21T18:33:02.760Z,102761.94
2023-01-21T18:35:49.992Z,102773.25
2023-01-21T18:38:37.843Z,102764.53
2023-01-21T18:41:23.145Z,102770.63
2023-01-21T18:44:09.345Z,102768.00
2023-01-21T18:46:56.483Z,102765.44
2023-01-21T18:49:42.640Z,102756.78
2023-01-21T18:52:28.529Z,102761.97
2023-01-21T18:55:16.086Z,102752.47
2023-01-21T18:58:04.382Z,102748.97
2023-01-21T19:00:49.782Z,102755.00
2023-01-21T19:03:35.163Z,102758.38
2023-01-21T19:06:20.877Z,102752.31
2023-01-21T19:09:20.532Z,102761.03
2023-01-21T19:12:05.931Z,102734.16
2023-01-21T19:14:51.175Z,102749.59
2023-01-21T19:17:38.116Z,102727.19
2023-01-21T19:20:26.518Z,102728.69
2023-01-21T19:23:16.946Z,102738.22
2023-01-21T19:26:04.109Z,102751.13
2023-01-21T19:28:49.643Z,102747.81
2023-01-21T19:31:34.887Z,102762.66
2023-01-21T19:34:21.804Z,102764.28
2023-01-21T19:37:13.738Z,102769.56
2023-01-21T19:39:59.375Z,102765.22
2023-01-21T19:42:44.981Z,102751.28
2023-01-21T19:45:30.483Z,102750.44
2023-01-21T19:48:18.320Z,102757.38
2023-01-21T19:51:03.813Z,102754.75
2023-01-21T19:53:49.187Z,102759.16
2023-01-21T19:56:34.696Z,102759.25
2023-01-21T19:59:20.211Z,102757.38
2023-01-21T20:02:05.922Z,102737.53
2023-01-21T20:04:51.525Z,102761.78
2023-01-21T20:07:37.121Z,102763.38
2023-01-21T20:10:26.329Z,102758.34
2023-01-21T20:13:13.223Z,102759.28
2023-01-21T20:16:02.572Z,102754.97
2023-01-21T20:18:49.223Z,102746.25
2023-01-21T20:21:36.294Z,102746.16
2023-01-21T20:24:26.759Z,102753.78
2023-01-21T20:27:14.269Z,102765.13
2023-01-21T20:30:14.804Z,102760.84
2023-01-21T20:33:01.700Z,102759.97
2023-01-21T20:35:49.101Z,102766.03
2023-01-21T20:38:36.835Z,102779.09
2023-01-21T20:41:22.236Z,102772.00
2023-01-21T20:44:07.466Z,102759.16
2023-01-21T20:46:53.825Z,102747.81
2023-01-21T20:49:39.284Z,102766.88
2023-01-21T20:52:25.025Z,102772.88
2023-01-21T20:55:12.538Z,102766.66
2023-01-21T20:57:58.262Z,102772.81
2023-01-21T21:00:45.223Z,102771.94
2023-01-21T21:03:30.880Z,102754.78
2023-01-21T21:06:28.478Z,102769.66
2023-01-21T21:09:14.127Z,102767.00
2023-01-21T21:11:59.370Z,102771.50
2023-01-21T21:14:44.660Z,102777.47
2023-01-21T21:17:30.193Z,102772.22
2023-01-21T21:20:17.565Z,102775.69
2023-01-21T21:23:03.169Z,102761.88
2023-01-21T21:25:48.863Z,102748.00
2023-01-21T21:28:34.470Z,102733.28
2023-01-21T21:31:20.359Z,102740.31
2023-01-21T21:34:05.705Z,102741.25
2023-01-21T21:36:51.449Z,102745.59
2023-01-21T21:39:36.968Z,102742.03
2023-01-21T21:42:40.967Z,102742.84
2023-01-21T21:45:26.654Z,102743.81
2023-01-21T21:48:38.601Z,102734.34
2023-01-21T21:51:24.069Z,102748.25
2023-01-21T21:54:12.985Z,102744.69
2023-01-21T21:56:58.363Z,102734.28
2023-01-21T21:59:43.995Z,102734.25
2023-01-21T22:02:29.295Z,102728.00
2023-01-21T22:05:15.266Z,102738.56
2023-01-21T22:08:01.907Z,102735.09
2023-01-21T22:10:55.790Z,102739.34
2023-01-21T22:13:43.366Z,102738.56
2023-01-21T22:16:29.867Z,102735.13
2023-01-21T22:19:15.193Z,102736.16
2023-01-21T22:22:00.549Z,102735.94
2023-01-21T22:24:45.949Z,102749.00
2023-01-21T22:27:31.466Z,102746.44
2023-01-21T22:30:17.169Z,102749.91
2023-01-21T22:33:02.445Z,102747.22
2023-01-21T22:35:48.367Z,102751.59
2023-01-21T22:38:34.637Z,102753.16
2023-01-21T22:41:22.544Z,102758.38
2023-01-21T22:44:07.999Z,102761.84
2023-01-21T22:46:53.481Z,102751.44
2023-01-21T22:49:39.061Z,102753.28
2023-01-21T22:52:25.285Z,102734.06
2023-01-21T22:55:10.607Z,102738.44
2023-01-21T22:57:55.975Z,102744.59
2023-01-21T23:00:41.788Z,102742.06
2023-01-21T23:03:28.643Z,102740.34
2023-01-21T23:06:14.151Z,102729.94
2023-01-21T23:08:59.552Z,102730.59
2023-01-21T23:11:45.412Z,102718.78
2023-01-21T23:14:31.172Z,102720.50
2023-01-21T23:17:16.746Z,102719.72
2023-01-21T23:20:02.227Z,102721.38
2023-01-21T23:22:47.963Z,102718.81
2023-01-21T23:25:33.591Z,102717.22
2023-01-21T23:28:19.013Z,102731.78
2023-01-21T23:31:06.548Z,102730.19
2023-01-21T23:33:53.654Z,102714.44
2023-01-21T23:36:39.264Z,102716.03
2023-01-21T23:39:24.851Z,102715.94
2023-01-21T23:42:10.597Z,102709.03
2023-01-21T23:44:56.049Z,102715.88
2023-01-21T23:47:41.350Z,102712.25
2023-01-21T23:50:26.851Z,102700.69
2023-01-21T23:53:12.226Z,102691.94
2023-01-21T23:56:10.542Z,102703.19
2023-01-21T23:58:56.287Z,102707.44
